Time;durP1;ratioP1;P1;durP2;ratioP2;P2;SDS_P1;SDS_P2;PMS_P1;PMS_P2;Temp;Humidity;BMP_temperature;BMP_pressure;BME280_temperature;BME280_humidity;BME280_pressure;Samples;Min_cycle;Max_cycle;Signal;HPM_P1;HPM_P2
2023/10/10 00:01:44;;;;;;;6.60;5.07;;;15.50;99.90;;;;;;4960639;28;90165;-33
2023/10/10 00:04:13;;;;;;;7.85;4.80;;;15.50;99.90;;;;;;4961839;28;88612;-32
2023/10/10 00:06:42;;;;;;;5.05;4.50;;;15.50;99.90;;;;;;4961319;28;88746;-33
2023/10/10 00:09:11;;;;;;;7.50;4.10;;;15.50;99.90;;;;;;4962461;28;88715;-33
2023/10/10 00:11:45;;;;;;;9.85;4.50;;;15.50;99.90;;;;;;4974107;28;90190;-36
2023/10/10 00:14:17;;;;;;;7.28;4.70;;;15.50;99.90;;;;;;4960430;28;90008;-35
2023/10/10 00:16:43;;;;;;;6.32;4.25;;;15.50;99.90;;;;;;4960390;28;89456;-35
2023/10/10 00:19:17;;;;;;;9.07;4.85;;;15.50;99.90;;;;;;4961137;28;88961;-32
2023/10/10 00:21:44;;;;;;;5.50;4.63;;;15.50;99.90;;;;;;4960087;28;89306;-34
2023/10/10 00:24:12;;;;;;;10.25;5.18;;;15.50;99.90;;;;;;4960457;28;89716;-33
2023/10/10 00:26:42;;;;;;;11.27;4.95;;;15.50;99.90;;;;;;4961005;28;89584;-35
2023/10/10 00:29:09;;;;;;;6.80;5.55;;;15.50;99.90;;;;;;4959193;28;87851;-35
2023/10/10 00:31:43;;;;;;;7.88;5.03;;;15.50;99.90;;;;;;4961245;28;89908;-32
2023/10/10 00:34:09;;;;;;;7.65;4.97;;;15.50;99.90;;;;;;4961057;28;90252;-32
2023/10/10 00:36:36;;;;;;;8.98;5.13;;;15.50;99.90;;;;;;4961339;28;90761;-32
2023/10/10 00:44:17;;;;;;;7.47;4.80;;;15.50;99.90;;;;;;4963485;28;89920;-36
2023/10/10 00:46:54;;;;;;;5.30;4.80;;;15.50;99.90;;;;;;4964870;28;89172;-33
2023/10/10 00:49:26;;;;;;;8.20;4.65;;;15.50;99.90;;;;;;4968166;28;88438;-33
2023/10/10 00:51:56;;;;;;;5.95;5.35;;;15.50;99.90;;;;;;4964173;28;90381;-31
2023/10/10 00:54:26;;;;;;;9.43;5.60;;;15.50;99.90;;;;;;4961993;28;90406;-34
2023/10/10 00:56:54;;;;;;;8.85;5.93;;;15.50;99.90;;;;;;4964860;28;89618;-35
2023/10/10 00:59:42;;;;;;;8.50;6.75;;;15.50;99.90;;;;;;4967184;28;89689;-34
2023/10/10 01:02:10;;;;;;;;;;;15.50;99.90;;;;;;4967634;28;90141;-33
2023/10/10 01:04:48;;;;;;;7.18;5.82;;;15.50;99.90;;;;;;4946725;28;91526;-33
2023/10/10 01:07:19;;;;;;;6.45;5.75;;;15.50;99.90;;;;;;4966624;28;89579;-33
2023/10/10 01:10:09;;;;;;;10.85;6.50;;;15.50;99.90;;;;;;4963109;28;89500;-32
2023/10/10 01:12:35;;;;;;;10.57;5.97;;;15.50;99.90;;;;;;4960395;28;90037;-34
2023/10/10 01:15:14;;;;;;;8.63;5.43;;;15.50;99.90;;;;;;4975575;28;90055;-31
2023/10/10 01:17:40;;;;;;;8.10;6.30;;;15.50;99.90;;;;;;4951518;28;89755;-33
2023/10/10 01:22:46;;;;;;;10.77;6.50;;;15.60;99.90;;;;;;4966913;28;90969;-34
2023/10/10 01:28:01;;;;;;;11.20;7.53;;;15.50;99.90;;;;;;4960613;28;89594;-35
2023/10/10 01:33:14;;;;;;;9.30;6.55;;;15.50;99.90;;;;;;4959817;28;90472;-33
2023/10/10 01:35:41;;;;;;;8.10;7.03;;;15.50;99.90;;;;;;4959425;28;90008;-34
2023/10/10 01:38:31;;;;;;;8.60;6.75;;;15.50;99.90;;;;;;4958760;28;90325;-33
2023/10/10 01:40:58;;;;;;;8.13;6.10;;;15.50;99.90;;;;;;4959770;28;90327;-32
2023/10/10 01:43:24;;;;;;;13.15;7.50;;;15.50;99.90;;;;;;4959822;28;90886;-32
2023/10/10 01:46:08;;;;;;;6.95;6.25;;;15.50;99.90;;;;;;4941346;28;89521;-34
2023/10/10 01:48:43;;;;;;;10.48;7.18;;;15.50;99.90;;;;;;4973079;28;88324;-34
2023/10/10 01:51:10;;;;;;;11.75;7.30;;;15.50;99.90;;;;;;4947773;28;88278;-31
2023/10/10 01:53:40;;;;;;;7.65;6.93;;;15.50;99.90;;;;;;4971812;28;90431;-34
2023/10/10 01:56:11;;;;;;;9.43;7.35;;;15.60;99.90;;;;;;4958520;28;90663;-33
2023/10/10 01:58:37;;;;;;;17.50;7.55;;;15.50;99.90;;;;;;4958730;28;89660;-32
2023/10/10 02:01:12;;;;;;;8.55;6.72;;;15.50;99.90;;;;;;4959340;28;90489;-35
2023/10/10 02:03:39;;;;;;;8.50;7.18;;;15.60;99.90;;;;;;4957514;28;90172;-33
2023/10/10 02:06:09;;;;;;;9.80;8.02;;;15.50;99.90;;;;;;4959131;28;89841;-33
2023/10/10 02:08:38;;;;;;;8.20;7.43;;;15.50;99.90;;;;;;4958130;28;89439;-32
2023/10/10 02:11:06;;;;;;;9.95;8.43;;;15.60;99.90;;;;;;4968582;28;88946;-32
2023/10/10 02:13:33;;;;;;;10.23;8.38;;;15.50;99.90;;;;;;4963133;28;90103;-34
2023/10/10 02:16:01;;;;;;;10.13;8.07;;;15.50;99.90;;;;;;4959625;28;89929;-34
2023/10/10 02:21:43;;;;;;;11.00;8.18;;;15.50;99.90;;;;;;4951993;28;88388;-32
2023/10/10 02:26:54;;;;;;;12.68;10.45;;;15.50;99.90;;;;;;4958067;28;91888;-32
2023/10/10 02:29:53;;;;;;;14.38;9.52;;;15.50;99.90;;;;;;4957887;28;90836;-33
2023/10/10 02:32:19;;;;;;;10.43;8.77;;;15.50;99.90;;;;;;4946687;28;90376;-33
2023/10/10 02:34:56;;;;;;;12.40;8.82;;;15.60;99.90;;;;;;4959160;28;90754;-34
2023/10/10 02:40:42;;;;;;;12.00;10.50;;;15.60;99.90;;;;;;4958833;28;89599;-34
2023/10/10 02:43:18;;;;;;;12.18;8.35;;;15.60;99.90;;;;;;4954670;28;89274;-35
2023/10/10 02:45:37;;;;;;;14.77;9.05;;;15.50;99.90;;;;;;4945218;28;90923;-33
2023/10/10 02:48:07;;;;;;;13.85;8.57;;;15.50;99.90;;;;;;4959238;28;89567;-34
2023/10/10 02:50:40;;;;;;;10.18;8.10;;;15.50;99.90;;;;;;4974015;28;89769;-34
2023/10/10 02:53:09;;;;;;;10.60;7.45;;;15.50;99.90;;;;;;4967742;28;90536;-30
2023/10/10 02:55:41;;;;;;;10.27;8.65;;;15.50;99.90;;;;;;4958791;28;89092;-33
2023/10/10 02:58:20;;;;;;;7.45;6.35;;;15.50;99.90;;;;;;4959171;28;89859;-32
2023/10/10 03:00:50;;;;;;;11.60;7.05;;;15.50;99.90;;;;;;4946165;28;89604;-33
2023/10/10 03:03:18;;;;;;;7.82;7.15;;;15.50;99.90;;;;;;4958506;28;90362;-32
2023/10/10 03:05:50;;;;;;;;;;;15.50;99.90;;;;;;4959836;28;90052;-31
2023/10/10 03:08:26;;;;;;;8.88;7.65;;;15.50;99.90;;;;;;4959652;28;88326;-34
2023/10/10 03:10:59;;;;;;;7.93;6.72;;;15.50;99.90;;;;;;4966434;28;90369;-33
2023/10/10 03:13:31;;;;;;;13.43;6.88;;;15.50;99.90;;;;;;4963348;28;89847;-31
2023/10/10 03:16:15;;;;;;;10.75;7.80;;;15.50;99.90;;;;;;4960181;28;90161;-33
2023/10/10 03:18:54;;;;;;;10.90;7.25;;;15.50;99.90;;;;;;4961589;28;90966;-33
2023/10/10 03:21:44;;;;;;;8.18;6.65;;;15.50;99.90;;;;;;4961961;28;90525;-34
2023/10/10 03:34:55;;;;;;;7.93;7.05;;;15.40;99.90;;;;;;4961663;28;89620;-33
2023/10/10 03:37:30;;;;;;;11.23;7.30;;;15.40;99.90;;;;;;4962339;28;89851;-32
2023/10/10 03:40:21;;;;;;;9.15;7.00;;;15.40;99.90;;;;;;4968642;28;90014;-34
2023/10/10 05:24:24;;;;;;;13.40;10.20;;;15.20;99.90;;;;;;4962767;28;89668;-33
2023/10/10 05:26:49;;;;;;;;;;;15.20;99.90;;;;;;4960502;28;90461;-31
2023/10/10 05:29:19;;;;;;;16.08;12.50;;;15.20;99.90;;;;;;4966237;28;89189;-34
2023/10/10 05:31:51;;;;;;;16.40;12.05;;;15.10;99.90;;;;;;4959116;28;89179;-33
2023/10/10 05:34:18;;;;;;;15.07;12.05;;;15.20;99.90;;;;;;4959347;28;89177;-33
2023/10/10 05:36:48;;;;;;;16.40;13.38;;;15.10;99.90;;;;;;4959082;28;89817;-33
2023/10/10 05:39:17;;;;;;;15.65;12.23;;;15.20;99.90;;;;;;4958366;28;90376;-33
2023/10/10 05:41:47;;;;;;;20.08;13.68;;;15.10;99.90;;;;;;4967598;28;88206;-33
2023/10/10 05:44:15;;;;;;;14.52;12.55;;;15.10;99.90;;;;;;4998815;22;90018;-33
2023/10/10 05:46:40;;;;;;;18.65;14.35;;;15.10;99.90;;;;;;4979141;28;90348;-31
2023/10/10 05:49:06;;;;;;;17.35;13.93;;;15.10;99.90;;;;;;4990643;28;89318;-32
2023/10/10 05:51:32;;;;;;;18.02;13.85;;;15.10;99.90;;;;;;4976514;28;90068;-35
2023/10/10 05:53:57;;;;;;;22.23;15.55;;;15.10;99.90;;;;;;4978617;28;88943;-33
2023/10/10 05:56:23;;;;;;;22.25;15.10;;;15.10;99.90;;;;;;4978975;28;90214;-31
2023/10/10 05:58:49;;;;;;;20.52;16.65;;;15.10;99.90;;;;;;4977735;28;89373;-33
2023/10/10 06:01:16;;;;;;;19.42;15.32;;;15.10;99.90;;;;;;4978516;28;90296;-32
2023/10/10 06:03:46;;;;;;;18.83;15.18;;;15.10;99.90;;;;;;4978298;28;88951;-32
2023/10/10 06:06:13;;;;;;;18.60;15.80;;;15.10;99.90;;;;;;4977988;28;90461;-32
2023/10/10 06:08:43;;;;;;;18.45;16.15;;;15.10;99.90;;;;;;4978219;28;91080;-32
2023/10/10 06:11:09;;;;;;;23.00;15.35;;;15.10;99.90;;;;;;4987478;28;88920;-33
2023/10/10 06:13:39;;;;;;;20.55;15.88;;;15.10;99.90;;;;;;4983257;28;88548;-33
2023/10/10 06:16:08;;;;;;;23.05;16.63;;;15.10;99.90;;;;;;4988338;28;90636;-34
2023/10/10 06:18:34;;;;;;;21.58;15.98;;;15.10;99.90;;;;;;4977079;28;89938;-34
2023/10/10 06:21:05;;;;;;;21.08;16.65;;;15.10;99.90;;;;;;4988076;28;89085;-31
2023/10/10 06:23:33;;;;;;;25.90;17.10;;;15.00;99.90;;;;;;4978787;28;90482;-34
2023/10/10 06:25:59;;;;;;;24.20;17.13;;;15.00;99.90;;;;;;4977368;28;90324;-31
2023/10/10 06:28:26;;;;;;;23.27;18.02;;;15.00;99.90;;;;;;4977066;28;90928;-34
2023/10/10 06:30:53;;;;;;;27.00;18.27;;;15.00;99.90;;;;;;4977205;28;89840;-31
2023/10/10 06:33:33;;;;;;;26.98;19.38;;;15.00;99.90;;;;;;4978173;28;88437;-33
2023/10/10 06:41:36;;;;;;;25.85;19.35;;;15.00;99.90;;;;;;4977494;28;90300;-35
2023/10/10 06:44:12;;;;;;;23.08;18.17;;;15.00;99.90;;;;;;4991406;28;89621;-35
2023/10/10 06:46:42;;;;;;;27.83;20.98;;;15.10;99.90;;;;;;4977814;28;89784;-34
2023/10/10 06:49:11;;;;;;;25.50;19.45;;;15.10;99.90;;;;;;4958349;28;90461;-32
2023/10/10 06:51:40;;;;;;;31.05;20.05;;;15.10;99.90;;;;;;4977761;28;90844;-34
2023/10/10 06:54:27;;;;;;;26.58;21.40;;;15.20;99.90;;;;;;4977525;28;89165;-33
2023/10/10 06:57:04;;;;;;;24.15;18.38;;;15.20;99.90;;;;;;4976743;28;89998;-32
2023/10/10 06:59:30;;;;;;;30.90;21.90;;;15.20;99.90;;;;;;4977838;28;89480;-34
2023/10/10 07:01:59;;;;;;;27.35;21.48;;;15.30;99.90;;;;;;4975401;28;89377;-33
2023/10/10 07:04:27;;;;;;;26.85;20.50;;;15.30;99.90;;;;;;4977152;28;90512;-35
2023/10/10 07:06:54;;;;;;;26.77;21.47;;;15.40;99.90;;;;;;4976662;28;90571;-34
2023/10/10 07:09:29;;;;;;;30.02;21.10;;;15.40;99.90;;;;;;4974451;28;89855;-32
2023/10/10 07:11:56;;;;;;;33.70;24.45;;;15.40;99.90;;;;;;4989130;28;89178;-33
2023/10/10 07:14:26;;;;;;;29.60;23.08;;;15.50;99.90;;;;;;4976487;28;88397;-32
2023/10/10 07:16:56;;;;;;;31.75;23.33;;;15.50;99.90;;;;;;4976861;28;90353;-32
2023/10/10 07:19:29;;;;;;;30.95;23.52;;;15.50;99.90;;;;;;4976886;28;89906;-33
2023/10/10 07:21:56;;;;;;;30.80;23.80;;;15.60;99.90;;;;;;4964362;28;89770;-31
2023/10/10 07:24:28;;;;;;;33.72;26.02;;;15.60;99.90;;;;;;4989121;28;89404;-34
2023/10/10 07:27:11;;;;;;;44.45;28.30;;;15.60;99.90;;;;;;4976541;28;90435;-34
2023/10/10 07:32:18;;;;;;;40.78;29.80;;;15.70;99.90;;;;;;4977606;28;90633;-34
2023/10/10 07:34:51;;;;;;;38.25;28.17;;;15.70;99.90;;;;;;4975977;28;88989;-32
2023/10/10 07:37:17;;;;;;;35.78;27.48;;;15.70;99.90;;;;;;4977270;28;90641;-31
2023/10/10 07:39:55;;;;;;;32.63;25.13;;;15.80;99.90;;;;;;4975595;28;90536;-34
2023/10/10 07:42:29;;;;;;;37.25;28.00;;;15.80;99.90;;;;;;4978417;28;90162;-33
2023/10/10 07:44:56;;;;;;;33.88;25.52;;;15.80;99.90;;;;;;4987254;28;90087;-31
2023/10/10 07:47:25;;;;;;;34.33;26.75;;;15.90;99.90;;;;;;4977162;28;90507;-34
2023/10/10 07:49:55;;;;;;;32.88;27.40;;;15.90;99.90;;;;;;4976069;28;89711;-34
2023/10/10 07:52:22;;;;;;;43.53;29.98;;;16.00;99.90;;;;;;4994299;28;89624;-34
2023/10/10 07:55:03;;;;;;;43.95;30.60;;;16.00;99.90;;;;;;4985698;28;88707;-34
2023/10/10 07:57:29;;;;;;;44.03;30.90;;;16.10;99.90;;;;;;4964115;28;90282;-35
2023/10/10 07:59:58;;;;;;;47.47;34.47;;;16.10;99.90;;;;;;4976351;28;89693;-31
2023/10/10 08:02:25;;;;;;;46.47;32.63;;;16.20;99.90;;;;;;4979332;28;90122;-31
2023/10/10 08:04:55;;;;;;;47.42;36.58;;;16.20;99.90;;;;;;4978845;28;90184;-32
2023/10/10 08:07:23;;;;;;;48.42;37.05;;;16.30;99.90;;;;;;4989312;28;89570;-34
2023/10/10 08:09:51;;;;;;;49.38;38.15;;;16.20;99.90;;;;;;4983110;28;89772;-34
2023/10/10 08:12:23;;;;;;;49.17;36.58;;;16.30;99.90;;;;;;4992303;28;90259;-35
2023/10/10 08:14:49;;;;;;;52.20;37.63;;;16.30;99.90;;;;;;4979763;28;88472;-34
2023/10/10 08:17:25;;;;;;;55.40;38.38;;;16.30;99.90;;;;;;4979668;28;90309;-31
2023/10/10 08:19:51;;;;;;;54.58;41.53;;;16.30;99.90;;;;;;4980589;28;89706;-34
2023/10/10 08:22:27;;;;;;;54.15;41.03;;;16.40;99.90;;;;;;4991478;28;89422;-32
2023/10/10 08:24:52;;;;;;;57.58;38.15;;;16.40;99.90;;;;;;4979112;28;90059;-31
2023/10/10 08:27:18;;;;;;;62.58;40.08;;;16.50;99.90;;;;;;4985477;28;90419;-32
2023/10/10 08:29:47;;;;;;;56.08;43.05;;;16.50;99.90;;;;;;4982042;28;90512;-35
2023/10/10 08:32:12;;;;;;;55.53;42.15;;;16.50;99.90;;;;;;4977458;28;90302;-32
2023/10/10 08:34:42;;;;;;;58.83;41.10;;;16.60;99.90;;;;;;4976728;28;90865;-34
2023/10/10 08:37:11;;;;;;;55.78;42.22;;;16.60;99.90;;;;;;4976210;28;90383;-34
2023/10/10 08:39:39;;;;;;;58.40;43.55;;;16.60;99.90;;;;;;4977185;28;89897;-36
2023/10/10 08:42:10;;;;;;;60.17;43.00;;;16.60;99.90;;;;;;4979356;28;88393;-32
2023/10/10 08:44:38;;;;;;;61.40;43.92;;;16.60;99.90;;;;;;4979333;28;88197;-34
2023/10/10 08:47:06;;;;;;;64.03;43.78;;;16.60;99.90;;;;;;4978999;28;91406;-33
2023/10/10 08:49:32;;;;;;;66.50;47.45;;;16.60;99.90;;;;;;4978545;28;89585;-34
2023/10/10 08:52:03;;;;;;;63.05;44.20;;;16.60;99.90;;;;;;4979328;28;90059;-34
2023/10/10 08:54:29;;;;;;;57.42;40.25;;;16.40;99.90;;;;;;4979443;28;90602;-30
2023/10/10 08:57:02;;;;;;;60.45;42.75;;;16.50;99.90;;;;;;4980644;28;90739;-34
2023/10/10 08:59:30;;;;;;;62.78;43.38;;;16.40;99.90;;;;;;4970388;28;90087;-35
2023/10/10 09:02:06;;;;;;;69.10;47.00;;;16.50;99.90;;;;;;4978971;28;90116;-33
2023/10/10 09:04:31;;;;;;;65.47;43.92;;;16.50;99.90;;;;;;4978981;28;87694;-31
2023/10/10 09:09:33;;;;;;;65.55;43.83;;;16.60;99.90;;;;;;4988292;28;89950;-33
2023/10/10 09:12:02;;;;;;;68.47;45.05;;;16.60;99.90;;;;;;4988659;28;89573;-34
2023/10/10 09:14:41;;;;;;;66.85;44.88;;;16.70;99.90;;;;;;4978818;28;89107;-34
2023/10/10 09:17:11;;;;;;;68.32;44.55;;;16.80;99.90;;;;;;4978047;28;90233;-34
2023/10/10 09:19:48;;;;;;;63.60;42.83;;;16.90;99.90;;;;;;4979207;28;90283;-34
2023/10/10 09:22:28;;;;;;;58.40;44.60;;;17.10;99.90;;;;;;4978984;28;90299;-32
2023/10/10 09:24:59;;;;;;;61.60;46.05;;;17.30;99.90;;;;;;4979161;28;89327;-34
2023/10/10 09:27:28;;;;;;;64.55;43.67;;;17.40;99.90;;;;;;4979784;28;89930;-30
2023/10/10 09:29:56;;;;;;;63.00;44.90;;;17.50;99.90;;;;;;4976900;28;90184;-33
2023/10/10 09:32:35;;;;;;;58.60;41.25;;;17.60;99.90;;;;;;4998332;28;90278;-34
2023/10/10 09:35:02;;;;;;;59.20;43.92;;;17.70;99.90;;;;;;4997873;28;88421;-33
2023/10/10 09:37:34;;;;;;;56.15;43.17;;;17.70;99.90;;;;;;4998692;28;91982;-32
2023/10/10 09:40:07;;;;;;;57.10;42.10;;;17.70;99.90;;;;;;4997030;28;90528;-31
2023/10/10 09:45:58;;;;;;;59.35;44.00;;;17.80;99.90;;;;;;4979679;28;90024;-35
2023/10/10 09:49:15;;;;;;;51.38;39.97;;;17.80;99.90;;;;;;4997913;28;90381;-33
2023/10/10 09:54:15;;;;;;;54.47;41.22;;;17.90;99.90;;;;;;4997526;28;89881;-36
2023/10/10 09:56:50;;;;;;;58.15;39.92;;;18.00;99.90;;;;;;4982092;28;89493;-32
2023/10/10 09:59:19;;;;;;;60.67;43.33;;;18.10;99.90;;;;;;4994375;28;90563;-33
2023/10/10 10:01:59;;;;;;;59.42;43.05;;;18.10;99.90;;;;;;4987195;28;89370;-34
2023/10/10 10:04:28;;;;;;;59.13;42.05;;;18.10;99.90;;;;;;4997150;28;89597;-32
2023/10/10 10:07:14;;;;;;;52.45;43.05;;;18.20;99.90;;;;;;4998135;28;88798;-33
2023/10/10 10:10:09;;;;;;;57.00;41.35;;;18.30;99.90;;;;;;4976110;28;90018;-33
2023/10/10 10:12:53;;;;;;;54.20;40.75;;;18.30;99.90;;;;;;4995541;28;90389;-34
2023/10/10 10:15:57;;;;;;;53.97;40.10;;;18.20;99.90;;;;;;4992308;28;90296;-33
2023/10/10 10:18:29;;;;;;;52.60;39.85;;;18.20;99.90;;;;;;4994138;28;89399;-34
2023/10/10 10:23:46;;;;;;;54.42;41.28;;;18.30;99.90;;;;;;4994518;28;89814;-33
2023/10/10 10:26:33;;;;;;;59.42;42.53;;;18.30;99.90;;;;;;4997670;28;89760;-32
2023/10/10 10:29:15;;;;;;;50.30;37.22;;;18.30;99.90;;;;;;4986543;28;88239;-32
2023/10/10 10:31:49;;;;;;;52.80;38.60;;;18.30;99.90;;;;;;4964127;28;88665;-33
2023/10/10 10:34:31;;;;;;;52.08;38.95;;;18.30;99.90;;;;;;4977801;28;89929;-34
2023/10/10 10:37:06;;;;;;;50.63;38.30;;;18.40;99.90;;;;;;4978451;28;88356;-32
2023/10/10 10:39:36;;;;;;;50.05;38.88;;;18.50;99.90;;;;;;4977696;28;90055;-33
2023/10/10 10:42:11;;;;;;;56.58;37.70;;;18.50;99.90;;;;;;4981034;28;89924;-35
2023/10/10 10:44:58;;;;;;;53.20;39.50;;;18.60;99.90;;;;;;4976766;28;89367;-31
2023/10/10 10:47:39;;;;;;;54.90;39.33;;;18.70;99.90;;;;;;4979870;28;90099;-32
2023/10/10 10:50:58;;;;;;;47.30;37.92;;;18.70;99.90;;;;;;4982942;28;89178;-34
2023/10/10 10:52:59;;;;;;;56.63;40.10;;;18.70;99.90;;;;;;4964871;28;90970;-32
2023/10/10 10:55:42;;;;;;;50.55;37.85;;;18.90;99.90;;;;;;4977231;28;89331;-33
2023/10/10 10:58:28;;;;;;;49.72;37.53;;;19.00;99.90;;;;;;4977756;28;88578;-33
2023/10/10 11:01:00;;;;;;;54.72;36.30;;;19.00;99.90;;;;;;4972305;28;88932;-32
2023/10/10 11:03:33;;;;;;;53.40;37.35;;;19.10;99.90;;;;;;4976268;28;88876;-32
2023/10/10 11:06:10;;;;;;;47.85;37.83;;;19.10;99.90;;;;;;4980079;28;89450;-32
2023/10/10 11:16:46;;;;;;;52.30;37.55;;;19.40;99.90;;;;;;4975623;28;89886;-34
2023/10/10 11:21:54;;;;;;;46.90;37.28;;;19.60;99.90;;;;;;4978283;28;88270;-32
2023/10/10 11:24:26;;;;;;;48.25;34.50;;;19.60;99.90;;;;;;4987803;28;89905;-31
2023/10/10 11:29:45;;;;;;;44.22;32.75;;;19.60;99.90;;;;;;4977555;28;90140;-32
2023/10/10 11:32:24;;;;;;;42.17;33.88;;;19.50;99.90;;;;;;4976220;28;88419;-34
2023/10/10 11:34:56;;;;;;;46.95;35.42;;;19.50;99.90;;;;;;4982865;28;90214;-31
2023/10/10 11:37:32;;;;;;;45.22;33.95;;;19.50;99.90;;;;;;4986579;28;89354;-33
2023/10/10 11:43:13;;;;;;;45.20;33.35;;;19.70;99.90;;;;;;4987592;28;89843;-33
2023/10/10 11:45:53;;;;;;;35.15;29.95;;;19.80;99.90;;;;;;4977703;28;88968;-35
2023/10/10 11:48:18;;;;;;;36.55;27.90;;;19.90;99.90;;;;;;4983188;28;89930;-34
2023/10/10 11:50:48;;;;;;;35.60;28.70;;;20.00;99.90;;;;;;4980477;28;89541;-35
2023/10/10 11:53:19;;;;;;;43.33;31.90;;;20.00;99.90;;;;;;4979726;28;89841;-33
2023/10/10 11:55:55;;;;;;;42.60;31.10;;;19.90;99.90;;;;;;4979829;28;89999;-33
2023/10/10 11:58:37;;;;;;;34.70;27.35;;;19.90;99.90;;;;;;4979167;28;90338;-33
2023/10/10 12:01:05;;;;;;;37.60;27.92;;;20.00;99.90;;;;;;4979672;28;90800;-35
2023/10/10 12:06:17;;;;;;;32.17;26.65;;;20.20;99.90;;;;;;4976119;28;89104;-35
2023/10/10 12:08:45;;;;;;;31.67;26.10;;;20.30;99.90;;;;;;4971794;28;89318;-33
2023/10/10 12:11:12;;;;;;;;;;;20.40;99.90;;;;;;4984159;28;90958;-34
2023/10/10 12:13:38;;;;;;;27.90;24.80;;;20.40;99.90;;;;;;4985188;28;89446;-32
2023/10/10 12:16:10;;;;;;;33.78;24.10;;;20.40;99.90;;;;;;4979343;28;90380;-31
2023/10/10 12:18:43;;;;;;;34.97;23.98;;;20.40;99.90;;;;;;4978931;28;89779;-34
2023/10/10 12:21:10;;;;;;;34.85;26.10;;;20.40;99.90;;;;;;4980190;28;89335;-32
2023/10/10 12:23:36;;;;;;;27.67;22.30;;;20.40;99.90;;;;;;4961332;28;90415;-33
2023/10/10 12:26:05;;;;;;;32.53;25.70;;;20.40;99.90;;;;;;4962227;28;90409;-32
2023/10/10 12:28:30;;;;;;;34.70;25.95;;;20.40;99.90;;;;;;4974090;28;89102;-33
2023/10/10 12:30:56;;;;;;;29.05;22.35;;;20.40;99.90;;;;;;4989774;28;90152;-34
2023/10/10 12:33:25;;;;;;;30.98;22.65;;;20.50;99.90;;;;;;4998053;28;88810;-35
2023/10/10 12:35:51;;;;;;;29.20;21.80;;;20.60;99.90;;;;;;4998924;28;90265;-35
2023/10/10 12:38:20;;;;;;;34.83;25.38;;;20.60;99.90;;;;;;4997590;28;88384;-32
2023/10/10 12:40:50;;;;;;;31.92;22.13;;;20.70;99.90;;;;;;4998602;28;88182;-34
2023/10/10 12:43:19;;;;;;;30.10;23.13;;;20.70;99.90;;;;;;4998341;28;87965;-33
2023/10/10 12:45:50;;;;;;;28.05;21.75;;;20.60;99.90;;;;;;4997622;28;90053;-34
2023/10/10 12:48:23;;;;;;;26.55;20.35;;;20.60;99.90;;;;;;4973724;28;92613;-33
2023/10/10 12:50:52;;;;;;;27.17;21.58;;;20.70;99.90;;;;;;4993625;28;90642;-32
2023/10/10 12:53:19;;;;;;;40.05;21.95;;;20.70;99.90;;;;;;4995455;28;87970;-32
2023/10/10 12:55:54;;;;;;;25.90;19.75;;;20.80;99.90;;;;;;4998702;28;89753;-33
2023/10/10 12:58:22;;;;;;;32.45;23.20;;;20.80;99.90;;;;;;4998636;28;88437;-33
2023/10/10 13:00:52;;;;;;;23.92;19.83;;;20.80;99.90;;;;;;4989620;28;88967;-35
2023/10/10 13:03:31;;;;;;;27.58;19.80;;;20.70;99.90;;;;;;4998166;28;90020;-33
2023/10/10 13:06:02;;;;;;;24.33;20.42;;;20.70;99.90;;;;;;4995252;28;90622;-34
2023/10/10 13:08:39;;;;;;;27.98;19.13;;;20.60;99.90;;;;;;4991231;28;89490;-33
2023/10/10 13:11:12;;;;;;;28.15;19.98;;;20.60;99.90;;;;;;4969721;28;89632;-35
2023/10/10 13:13:45;;;;;;;20.67;16.85;;;20.50;99.90;;;;;;4995096;28;90198;-32
2023/10/10 13:19:20;;;;;;;24.38;18.95;;;20.40;99.90;;;;;;4909374;28;90530;-35
2023/10/10 13:21:47;;;;;;;22.25;18.17;;;20.40;99.90;;;;;;4914721;28;89440;-32
2023/10/10 13:24:13;;;;;;;29.58;18.48;;;20.40;99.90;;;;;;4951325;28;88822;-33
2023/10/10 13:26:50;;;;;;;22.65;16.73;;;20.40;99.90;;;;;;4996004;28;91275;-32
2023/10/10 13:29:16;;;;;;;25.20;18.75;;;20.40;99.90;;;;;;4983777;28;89739;-34
2023/10/10 13:31:44;;;;;;;23.70;17.75;;;20.40;99.90;;;;;;4978268;28;90079;-33
2023/10/10 13:34:10;;;;;;;;;;;20.40;99.90;;;;;;4980524;28;88948;-34
2023/10/10 13:36:36;;;;;;;25.40;19.73;;;20.40;99.90;;;;;;4991323;28;90442;-33
2023/10/10 13:39:07;;;;;;;24.50;20.13;;;20.40;99.90;;;;;;4978394;28;90407;-31
2023/10/10 13:41:36;;;;;;;26.48;21.98;;;20.30;99.90;;;;;;4978756;28;90105;-34
2023/10/10 13:44:03;;;;;;;24.95;21.20;;;20.30;99.90;;;;;;4990680;28;89142;-36
2023/10/10 13:46:35;;;;;;;25.98;21.25;;;20.30;99.90;;;;;;4978281;28;92416;-33
2023/10/10 13:49:08;;;;;;;25.23;19.85;;;20.30;99.90;;;;;;4978617;28;90112;-34
2023/10/10 13:51:39;;;;;;;27.55;20.55;;;20.30;99.90;;;;;;4976767;28;89564;-32
2023/10/10 13:54:05;;;;;;;25.40;20.38;;;20.30;99.90;;;;;;4979653;28;90194;-34
2023/10/10 13:56:31;;;;;;;21.95;19.08;;;20.30;99.90;;;;;;4978398;28;91381;-33
2023/10/10 13:59:00;;;;;;;26.50;19.33;;;20.30;99.90;;;;;;4975551;28;90362;-35
2023/10/10 14:04:01;;;;;;;32.10;21.25;;;20.30;99.90;;;;;;4982747;28;89624;-31
2023/10/10 14:06:33;;;;;;;22.40;19.45;;;20.30;99.90;;;;;;4986817;28;89825;-34
2023/10/10 14:09:00;;;;;;;33.40;23.88;;;20.30;99.90;;;;;;4977908;28;89661;-33
2023/10/10 14:11:26;;;;;;;28.05;21.58;;;20.30;99.90;;;;;;4989186;28;89978;-32
2023/10/10 14:13:53;;;;;;;29.38;21.70;;;20.30;99.90;;;;;;4977995;28;89440;-33
2023/10/10 14:16:21;;;;;;;29.13;23.15;;;20.30;99.90;;;;;;4978602;28;91196;-33
2023/10/10 14:18:50;;;;;;;27.63;19.50;;;20.30;99.90;;;;;;4990762;28;89980;-33
2023/10/10 14:21:27;;;;;;;29.08;22.02;;;20.30;99.90;;;;;;4977554;28;91478;-35
2023/10/10 14:24:04;;;;;;;25.45;20.38;;;20.30;99.90;;;;;;4971823;28;88585;-32
2023/10/10 14:26:33;;;;;;;25.85;21.20;;;20.30;99.90;;;;;;4979795;28;90399;-31
2023/10/10 14:29:05;;;;;;;28.88;21.85;;;20.30;99.90;;;;;;4976482;28;90548;-34
2023/10/10 14:31:32;;;;;;;26.30;20.73;;;20.30;99.90;;;;;;4981719;28;92563;-33
2023/10/10 14:34:00;;;;;;;25.90;21.27;;;20.20;99.90;;;;;;4985998;28;88380;-34
2023/10/10 14:36:27;;;;;;;27.13;21.08;;;20.20;99.90;;;;;;4977330;28;89792;-35
2023/10/10 14:38:53;;;;;;;23.08;18.73;;;20.20;99.90;;;;;;4978195;28;89050;-33
2023/10/10 14:41:20;;;;;;;27.38;19.98;;;20.20;99.90;;;;;;4982743;28;89005;-34
2023/10/10 14:43:47;;;;;;;25.35;18.95;;;20.20;99.90;;;;;;4977726;28;89231;-34
2023/10/10 14:46:27;;;;;;;26.20;20.42;;;20.20;99.90;;;;;;4972750;28;90066;-34
2023/10/10 14:49:41;;;;;;;23.02;17.45;;;20.20;99.90;;;;;;4981400;28;90041;-34
2023/10/10 14:51:40;;;;;;;21.17;18.33;;;20.20;99.90;;;;;;4973643;28;89757;-32
2023/10/10 14:54:12;;;;;;;20.52;18.42;;;20.10;99.90;;;;;;4977062;28;90280;-32
2023/10/10 14:56:50;;;;;;;23.25;18.45;;;20.10;99.90;;;;;;4977699;28;90296;-33
2023/10/10 14:59:18;;;;;;;25.48;17.73;;;20.10;99.90;;;;;;4970598;28;88789;-34
2023/10/10 15:01:47;;;;;;;23.88;18.05;;;20.10;99.90;;;;;;4977481;28;89301;-35
2023/10/10 15:04:17;;;;;;;16.25;14.65;;;20.00;99.90;;;;;;4977594;28;89259;-35
2023/10/10 15:06:44;;;;;;;21.05;16.27;;;20.00;99.90;;;;;;4975600;28;90210;-32
2023/10/10 15:09:14;;;;;;;22.38;17.10;;;20.00;99.90;;;;;;4979282;28;89696;-32
2023/10/10 15:11:42;;;;;;;23.83;17.00;;;19.90;99.90;;;;;;4989736;28;89160;-33
2023/10/10 15:14:09;;;;;;;20.48;16.65;;;19.90;99.90;;;;;;4989769;28;89063;-33
2023/10/10 15:16:36;;;;;;;20.85;16.42;;;19.90;99.90;;;;;;4976834;28;89349;-33
2023/10/10 15:19:07;;;;;;;20.33;16.95;;;19.80;99.90;;;;;;4984380;28;90488;-31
2023/10/10 15:21:34;;;;;;;20.50;17.52;;;19.80;99.90;;;;;;4980774;28;90551;-36
2023/10/10 15:24:01;;;;;;;18.80;16.83;;;19.80;99.90;;;;;;4977694;28;88457;-32
2023/10/10 15:26:27;;;;;;;19.35;15.23;;;19.80;99.90;;;;;;4976926;28;90289;-33
2023/10/10 15:28:54;;;;;;;19.58;16.08;;;19.70;99.90;;;;;;4973906;28;88641;-34
2023/10/10 15:31:24;;;;;;;18.65;16.35;;;19.70;99.90;;;;;;4989951;28;89569;-33
2023/10/10 15:33:53;;;;;;;17.50;15.65;;;19.70;99.90;;;;;;4996774;28;88641;-34
2023/10/10 15:36:19;;;;;;;23.17;17.73;;;19.60;99.90;;;;;;4995392;28;90278;-34
2023/10/10 15:38:45;;;;;;;20.23;15.10;;;19.70;99.90;;;;;;4989906;28;90061;-32
2023/10/10 15:41:19;;;;;;;18.50;15.32;;;19.60;99.90;;;;;;4982416;28;89928;-35
2023/10/10 15:43:49;;;;;;;19.88;16.50;;;19.60;99.90;;;;;;4994938;28;90666;-35
2023/10/10 15:46:17;;;;;;;15.82;14.25;;;19.60;99.90;;;;;;4990133;28;89686;-35
2023/10/10 15:48:48;;;;;;;18.75;16.52;;;19.50;99.90;;;;;;4995697;28;89809;-34
2023/10/10 15:51:20;;;;;;;18.08;16.00;;;19.50;99.90;;;;;;4994522;28;89939;-35
2023/10/10 15:53:47;;;;;;;19.08;15.15;;;19.40;99.90;;;;;;4994978;28;87560;-32